sensor_id;sensor_type;location;lat;lon;timestamp;temperature;humidity
2625;DHT22;1322;53.256;10.386;2023-04-16T00:02:20;8.80;99.90
2625;DHT22;1322;53.256;10.386;2023-04-16T00:04:46;8.70;99.90
2625;DHT22;1322;53.256;10.386;2023-04-16T00:07:12;8.80;99.90
2625;DHT22;1322;53.256;10.386;2023-04-16T00:09:37;9.30;99.90
2625;DHT22;1322;53.256;10.386;2023-04-16T00:12:03;8.80;99.90
2625;DHT22;1322;53.256;10.386;2023-04-16T00:14:30;8.90;99.90
2625;DHT22;1322;53.256;10.386;2023-04-16T00:16:56;9.10;99.90
2625;DHT22;1322;53.256;10.386;2023-04-16T00:19:22;8.90;99.90
2625;DHT22;1322;53.256;10.386;2023-04-16T00:21:47;8.90;99.90
2625;DHT22;1322;53.256;10.386;2023-04-16T00:24:13;8.90;99.90
2625;DHT22;1322;53.256;10.386;2023-04-16T00:26:39;9.00;99.90
2625;DHT22;1322;53.256;10.386;2023-04-16T00:29:05;9.10;99.90
2625;DHT22;1322;53.256;10.386;2023-04-16T00:31:32;9.10;99.90
2625;DHT22;1322;53.256;10.386;2023-04-16T00:33:58;9.10;99.90
2625;DHT22;1322;53.256;10.386;2023-04-16T00:36:24;9.10;99.90
2625;DHT22;1322;53.256;10.386;2023-04-16T00:38:51;9.10;99.90
2625;DHT22;1322;53.256;10.386;2023-04-16T00:41:17;9.10;99.90
2625;DHT22;1322;53.256;10.386;2023-04-16T00:43:43;9.10;99.90
2625;DHT22;1322;53.256;10.386;2023-04-16T00:46:08;9.10;99.90
2625;DHT22;1322;53.256;10.386;2023-04-16T00:48:35;9.10;99.90
2625;DHT22;1322;53.256;10.386;2023-04-16T00:51:04;9.10;99.90
2625;DHT22;1322;53.256;10.386;2023-04-16T00:53:30;9.00;99.90
2625;DHT22;1322;53.256;10.386;2023-04-16T00:55:56;9.10;99.90
2625;DHT22;1322;53.256;10.386;2023-04-16T00:58:22;9.10;99.90
2625;DHT22;1322;53.256;10.386;2023-04-16T01:00:49;9.10;99.90
2625;DHT22;1322;53.256;10.386;2023-04-16T01:03:15;9.20;99.90
2625;DHT22;1322;53.256;10.386;2023-04-16T01:05:40;9.20;99.90
2625;DHT22;1322;53.256;10.386;2023-04-16T01:08:06;9.20;99.90
2625;DHT22;1322;53.256;10.386;2023-04-16T01:10:42;9.30;99.90
2625;DHT22;1322;53.256;10.386;2023-04-16T01:13:07;9.30;99.90
2625;DHT22;1322;53.256;10.386;2023-04-16T01:15:33;9.30;99.90
2625;DHT22;1322;53.256;10.386;2023-04-16T01:17:58;9.40;99.90
2625;DHT22;1322;53.256;10.386;2023-04-16T01:20:24;9.40;99.90
2625;DHT22;1322;53.256;10.386;2023-04-16T01:22:49;9.40;99.90
2625;DHT22;1322;53.256;10.386;2023-04-16T01:25:15;9.40;99.90
2625;DHT22;1322;53.256;10.386;2023-04-16T01:27:41;9.40;99.90
2625;DHT22;1322;53.256;10.386;2023-04-16T01:30:07;9.50;99.90
2625;DHT22;1322;53.256;10.386;2023-04-16T01:32:33;9.40;99.90
2625;DHT22;1322;53.256;10.386;2023-04-16T01:34:58;9.30;99.90
2625;DHT22;1322;53.256;10.386;2023-04-16T01:37:24;9.20;99.90
2625;DHT22;1322;53.256;10.386;2023-04-16T01:39:49;9.30;99.90
2625;DHT22;1322;53.256;10.386;2023-04-16T01:42:15;9.20;99.90
2625;DHT22;1322;53.256;10.386;2023-04-16T01:44:41;8.90;99.90
2625;DHT22;1322;53.256;10.386;2023-04-16T01:47:07;9.30;99.90
2625;DHT22;1322;53.256;10.386;2023-04-16T01:49:33;9.30;99.90
2625;DHT22;1322;53.256;10.386;2023-04-16T01:51:58;9.30;99.90
2625;DHT22;1322;53.256;10.386;2023-04-16T01:54:27;9.30;99.90
2625;DHT22;1322;53.256;10.386;2023-04-16T01:56:53;9.30;99.90
2625;DHT22;1322;53.256;10.386;2023-04-16T01:59:18;9.60;99.90
2625;DHT22;1322;53.256;10.386;2023-04-16T02:01:44;9.30;99.90
2625;DHT22;1322;53.256;10.386;2023-04-16T02:04:10;9.60;99.90
2625;DHT22;1322;53.256;10.386;2023-04-16T02:06:36;9.10;99.90
2625;DHT22;1322;53.256;10.386;2023-04-16T02:09:02;9.30;99.90
2625;DHT22;1322;53.256;10.386;2023-04-16T02:11:28;9.30;99.90
2625;DHT22;1322;53.256;10.386;2023-04-16T02:13:54;9.30;99.90
2625;DHT22;1322;53.256;10.386;2023-04-16T02:16:19;9.30;99.90
2625;DHT22;1322;53.256;10.386;2023-04-16T02:18:45;9.20;99.90
2625;DHT22;1322;53.256;10.386;2023-04-16T02:21:10;9.30;99.90
2625;DHT22;1322;53.256;10.386;2023-04-16T02:23:36;9.20;99.90
2625;DHT22;1322;53.256;10.386;2023-04-16T02:26:05;9.20;99.90
2625;DHT22;1322;53.256;10.386;2023-04-16T02:28:30;9.60;99.90
2625;DHT22;1322;53.256;10.386;2023-04-16T02:30:56;9.20;99.90
2625;DHT22;1322;53.256;10.386;2023-04-16T02:33:22;9.20;99.90
2625;DHT22;1322;53.256;10.386;2023-04-16T02:35:50;9.20;99.90
2625;DHT22;1322;53.256;10.386;2023-04-16T02:38:16;9.10;99.90
2625;DHT22;1322;53.256;10.386;2023-04-16T02:40:41;9.10;99.90
2625;DHT22;1322;53.256;10.386;2023-04-16T02:43:08;9.10;99.90
2625;DHT22;1322;53.256;10.386;2023-04-16T02:45:33;9.00;99.90
2625;DHT22;1322;53.256;10.386;2023-04-16T02:47:59;9.00;99.90
2625;DHT22;1322;53.256;10.386;2023-04-16T02:50:25;9.00;99.90
2625;DHT22;1322;53.256;10.386;2023-04-16T02:52:51;9.00;99.90
2625;DHT22;1322;53.256;10.386;2023-04-16T02:55:16;9.00;99.90
2625;DHT22;1322;53.256;10.386;2023-04-16T02:57:42;9.00;99.90
2625;DHT22;1322;53.256;10.386;2023-04-16T03:00:08;8.90;99.90
2625;DHT22;1322;53.256;10.386;2023-04-16T03:02:34;8.90;99.90
2625;DHT22;1322;53.256;10.386;2023-04-16T03:05:00;8.90;99.90
2625;DHT22;1322;53.256;10.386;2023-04-16T03:07:26;8.90;99.90
2625;DHT22;1322;53.256;10.386;2023-04-16T03:09:51;8.90;99.90
2625;DHT22;1322;53.256;10.386;2023-04-16T03:12:17;8.90;99.90
2625;DHT22;1322;53.256;10.386;2023-04-16T03:14:42;9.00;99.90
2625;DHT22;1322;53.256;10.386;2023-04-16T03:17:08;8.90;99.90
2625;DHT22;1322;53.256;10.386;2023-04-16T03:19:34;9.60;99.90
2625;DHT22;1322;53.256;10.386;2023-04-16T03:21:59;9.50;99.90
2625;DHT22;1322;53.256;10.386;2023-04-16T03:24:25;8.90;99.90
2625;DHT22;1322;53.256;10.386;2023-04-16T03:26:52;8.90;99.90
2625;DHT22;1322;53.256;10.386;2023-04-16T03:29:18;8.90;99.90
2625;DHT22;1322;53.256;10.386;2023-04-16T03:31:43;8.90;99.90
2625;DHT22;1322;53.256;10.386;2023-04-16T03:34:09;8.90;99.90
2625;DHT22;1322;53.256;10.386;2023-04-16T03:36:35;8.90;99.90
2625;DHT22;1322;53.256;10.386;2023-04-16T03:39:00;8.90;99.90
2625;DHT22;1322;53.256;10.386;2023-04-16T03:41:26;8.90;99.90
2625;DHT22;1322;53.256;10.386;2023-04-16T03:43:51;8.80;99.90
2625;DHT22;1322;53.256;10.386;2023-04-16T03:46:17;8.80;99.90
2625;DHT22;1322;53.256;10.386;2023-04-16T03:48:43;8.90;99.90
2625;DHT22;1322;53.256;10.386;2023-04-16T03:51:08;8.90;99.90
2625;DHT22;1322;53.256;10.386;2023-04-16T03:53:37;8.80;99.90
2625;DHT22;1322;53.256;10.386;2023-04-16T03:56:02;8.90;99.90
2625;DHT22;1322;53.256;10.386;2023-04-16T03:58:28;9.00;99.90
2625;DHT22;1322;53.256;10.386;2023-04-16T04:00:54;8.90;99.90
2625;DHT22;1322;53.256;10.386;2023-04-16T04:03:19;9.20;99.90
2625;DHT22;1322;53.256;10.386;2023-04-16T04:05:45;9.10;99.90
2625;DHT22;1322;53.256;10.386;2023-04-16T04:08:11;9.10;99.90
2625;DHT22;1322;53.256;10.386;2023-04-16T04:10:36;9.10;99.90
2625;DHT22;1322;53.256;10.386;2023-04-16T04:13:03;9.10;99.90
2625;DHT22;1322;53.256;10.386;2023-04-16T04:15:29;9.10;99.90
2625;DHT22;1322;53.256;10.386;2023-04-16T04:17:55;9.10;99.90
2625;DHT22;1322;53.256;10.386;2023-04-16T04:20:21;9.10;99.90
2625;DHT22;1322;53.256;10.386;2023-04-16T04:22:47;9.10;99.90
2625;DHT22;1322;53.256;10.386;2023-04-16T04:25:14;9.20;99.90
2625;DHT22;1322;53.256;10.386;2023-04-16T04:27:42;9.30;99.90
2625;DHT22;1322;53.256;10.386;2023-04-16T04:30:08;9.20;99.90
2625;DHT22;1322;53.256;10.386;2023-04-16T04:32:34;9.20;99.90
2625;DHT22;1322;53.256;10.386;2023-04-16T04:35:01;9.10;99.90
2625;DHT22;1322;53.256;10.386;2023-04-16T04:37:27;9.50;99.90
2625;DHT22;1322;53.256;10.386;2023-04-16T04:39:53;9.10;99.90
2625;DHT22;1322;53.256;10.386;2023-04-16T04:42:19;9.20;99.90
2625;DHT22;1322;53.256;10.386;2023-04-16T04:44:45;9.00;99.90
2625;DHT22;1322;53.256;10.386;2023-04-16T04:47:12;9.20;99.90
2625;DHT22;1322;53.256;10.386;2023-04-16T04:49:37;9.10;99.90
2625;DHT22;1322;53.256;10.386;2023-04-16T04:52:03;9.00;99.90
2625;DHT22;1322;53.256;10.386;2023-04-16T04:54:30;9.00;99.90
2625;DHT22;1322;53.256;10.386;2023-04-16T04:56:56;9.10;99.90
2625;DHT22;1322;53.256;10.386;2023-04-16T04:59:22;9.00;99.90
2625;DHT22;1322;53.256;10.386;2023-04-16T05:01:48;9.00;99.90
2625;DHT22;1322;53.256;10.386;2023-04-16T05:04:14;9.10;99.90
2625;DHT22;1322;53.256;10.386;2023-04-16T05:06:40;9.00;99.90
2625;DHT22;1322;53.256;10.386;2023-04-16T05:09:05;9.10;99.90
2625;DHT22;1322;53.256;10.386;2023-04-16T05:11:36;9.00;99.90
2625;DHT22;1322;53.256;10.386;2023-04-16T05:14:03;9.10;99.90
2625;DHT22;1322;53.256;10.386;2023-04-16T05:16:28;9.30;99.90
2625;DHT22;1322;53.256;10.386;2023-04-16T05:18:54;9.20;99.90
2625;DHT22;1322;53.256;10.386;2023-04-16T05:21:21;9.20;99.90
2625;DHT22;1322;53.256;10.386;2023-04-16T05:23:46;9.30;99.90
2625;DHT22;1322;53.256;10.386;2023-04-16T05:26:12;9.30;99.90
2625;DHT22;1322;53.256;10.386;2023-04-16T05:28:37;9.20;99.90
2625;DHT22;1322;53.256;10.386;2023-04-16T05:31:03;9.20;99.90
2625;DHT22;1322;53.256;10.386;2023-04-16T05:33:29;9.20;99.90
2625;DHT22;1322;53.256;10.386;2023-04-16T05:35:54;9.20;99.90
2625;DHT22;1322;53.256;10.386;2023-04-16T05:38:20;9.30;99.90
2625;DHT22;1322;53.256;10.386;2023-04-16T05:40:46;9.60;99.90
2625;DHT22;1322;53.256;10.386;2023-04-16T05:43:11;9.40;99.90
2625;DHT22;1322;53.256;10.386;2023-04-16T05:45:37;9.20;99.90
2625;DHT22;1322;53.256;10.386;2023-04-16T05:48:07;9.30;99.90
2625;DHT22;1322;53.256;10.386;2023-04-16T05:50:33;9.30;99.90
2625;DHT22;1322;53.256;10.386;2023-04-16T05:53:00;9.10;99.90
2625;DHT22;1322;53.256;10.386;2023-04-16T05:55:26;9.30;99.90
2625;DHT22;1322;53.256;10.386;2023-04-16T05:57:52;9.30;99.90
2625;DHT22;1322;53.256;10.386;2023-04-16T06:00:17;9.40;99.90
2625;DHT22;1322;53.256;10.386;2023-04-16T06:02:43;9.30;99.90
2625;DHT22;1322;53.256;10.386;2023-04-16T06:05:09;9.40;99.90
2625;DHT22;1322;53.256;10.386;2023-04-16T06:07:34;9.40;99.90
2625;DHT22;1322;53.256;10.386;2023-04-16T06:10:00;9.40;99.90
2625;DHT22;1322;53.256;10.386;2023-04-16T06:12:26;9.50;99.90
2625;DHT22;1322;53.256;10.386;2023-04-16T06:14:51;9.70;99.90
2625;DHT22;1322;53.256;10.386;2023-04-16T06:17:17;9.50;99.90
2625;DHT22;1322;53.256;10.386;2023-04-16T06:19:43;9.50;99.90
2625;DHT22;1322;53.256;10.386;2023-04-16T06:22:09;9.60;99.90
2625;DHT22;1322;53.256;10.386;2023-04-16T06:24:35;9.60;99.90
2625;DHT22;1322;53.256;10.386;2023-04-16T06:27:01;9.60;99.90
2625;DHT22;1322;53.256;10.386;2023-04-16T06:29:27;9.60;99.90
2625;DHT22;1322;53.256;10.386;2023-04-16T06:31:53;9.90;99.90
2625;DHT22;1322;53.256;10.386;2023-04-16T06:34:19;9.30;99.90
2625;DHT22;1322;53.256;10.386;2023-04-16T06:36:44;9.60;99.90
2625;DHT22;1322;53.256;10.386;2023-04-16T06:39:10;9.80;99.90
2625;DHT22;1322;53.256;10.386;2023-04-16T06:41:36;9.70;99.90
2625;DHT22;1322;53.256;10.386;2023-04-16T06:44:01;9.70;99.90
2625;DHT22;1322;53.256;10.386;2023-04-16T06:46:27;9.70;99.90
2625;DHT22;1322;53.256;10.386;2023-04-16T06:48:53;9.70;99.90
2625;DHT22;1322;53.256;10.386;2023-04-16T06:51:18;9.80;99.90
2625;DHT22;1322;53.256;10.386;2023-04-16T06:53:44;9.70;99.90
2625;DHT22;1322;53.256;10.386;2023-04-16T06:56:09;9.70;99.90
2625;DHT22;1322;53.256;10.386;2023-04-16T06:58:35;9.70;99.90
2625;DHT22;1322;53.256;10.386;2023-04-16T07:01:01;9.70;99.90
2625;DHT22;1322;53.256;10.386;2023-04-16T07:03:27;9.70;99.90
2625;DHT22;1322;53.256;10.386;2023-04-16T07:05:53;9.80;99.90
2625;DHT22;1322;53.256;10.386;2023-04-16T07:08:18;9.80;99.90
2625;DHT22;1322;53.256;10.386;2023-04-16T07:10:44;9.80;99.90
2625;DHT22;1322;53.256;10.386;2023-04-16T07:13:10;9.50;99.90
2625;DHT22;1322;53.256;10.386;2023-04-16T07:15:35;9.70;99.90
2625;DHT22;1322;53.256;10.386;2023-04-16T07:18:01;9.80;99.90
2625;DHT22;1322;53.256;10.386;2023-04-16T07:20:27;9.80;99.90
2625;DHT22;1322;53.256;10.386;2023-04-16T07:22:52;9.80;99.90
2625;DHT22;1322;53.256;10.386;2023-04-16T07:25:21;9.80;99.90
2625;DHT22;1322;53.256;10.386;2023-04-16T07:27:47;9.90;99.90
2625;DHT22;1322;53.256;10.386;2023-04-16T07:30:12;9.90;99.90
2625;DHT22;1322;53.256;10.386;2023-04-16T07:32:38;10.00;99.90
2625;DHT22;1322;53.256;10.386;2023-04-16T07:35:04;10.00;99.90
2625;DHT22;1322;53.256;10.386;2023-04-16T07:37:30;10.10;99.90
2625;DHT22;1322;53.256;10.386;2023-04-16T07:39:55;10.10;99.90
2625;DHT22;1322;53.256;10.386;2023-04-16T07:42:22;10.70;99.90
2625;DHT22;1322;53.256;10.386;2023-04-16T07:44:47;10.40;99.90
2625;DHT22;1322;53.256;10.386;2023-04-16T07:47:13;10.50;99.90
2625;DHT22;1322;53.256;10.386;2023-04-16T07:49:39;10.50;99.90
2625;DHT22;1322;53.256;10.386;2023-04-16T07:52:05;10.50;99.90
2625;DHT22;1322;53.256;10.386;2023-04-16T07:54:30;10.60;99.90
2625;DHT22;1322;53.256;10.386;2023-04-16T07:56:56;10.80;99.90
2625;DHT22;1322;53.256;10.386;2023-04-16T07:59:22;10.60;99.90
2625;DHT22;1322;53.256;10.386;2023-04-16T08:01:48;10.60;99.90
2625;DHT22;1322;53.256;10.386;2023-04-16T08:04:13;10.70;99.90
2625;DHT22;1322;53.256;10.386;2023-04-16T08:06:41;10.80;99.90
2625;DHT22;1322;53.256;10.386;2023-04-16T08:09:07;10.80;99.90
2625;DHT22;1322;53.256;10.386;2023-04-16T08:11:32;10.90;99.90
2625;DHT22;1322;53.256;10.386;2023-04-16T08:13:58;10.80;99.90
2625;DHT22;1322;53.256;10.386;2023-04-16T08:16:24;10.80;99.90
2625;DHT22;1322;53.256;10.386;2023-04-16T08:18:49;10.80;99.90
2625;DHT22;1322;53.256;10.386;2023-04-16T08:21:15;10.90;99.90
2625;DHT22;1322;53.256;10.386;2023-04-16T08:23:40;10.90;99.90
2625;DHT22;1322;53.256;10.386;2023-04-16T08:26:06;10.90;99.90
2625;DHT22;1322;53.256;10.386;2023-04-16T08:28:32;11.00;99.90
2625;DHT22;1322;53.256;10.386;2023-04-16T08:30:58;11.10;99.90
2625;DHT22;1322;53.256;10.386;2023-04-16T08:33:23;11.10;99.90
2625;DHT22;1322;53.256;10.386;2023-04-16T08:35:49;11.10;99.90
2625;DHT22;1322;53.256;10.386;2023-04-16T08:38:14;11.10;99.90
2625;DHT22;1322;53.256;10.386;2023-04-16T08:40:40;11.00;99.90
2625;DHT22;1322;53.256;10.386;2023-04-16T08:43:11;11.00;99.90
2625;DHT22;1322;53.256;10.386;2023-04-16T08:45:40;11.40;99.90
2625;DHT22;1322;53.256;10.386;2023-04-16T08:48:08;10.90;99.90
2625;DHT22;1322;53.256;10.386;2023-04-16T08:50:37;11.30;99.90
2625;DHT22;1322;53.256;10.386;2023-04-16T08:53:05;10.90;99.90
2625;DHT22;1322;53.256;10.386;2023-04-16T08:55:47;10.90;99.90
2625;DHT22;1322;53.256;10.386;2023-04-16T09:00:40;10.90;99.90
2625;DHT22;1322;53.256;10.386;2023-04-16T09:03:07;10.90;99.90
2625;DHT22;1322;53.256;10.386;2023-04-16T09:05:34;10.90;99.90
2625;DHT22;1322;53.256;10.386;2023-04-16T09:08:00;11.00;99.90
2625;DHT22;1322;53.256;10.386;2023-04-16T09:10:29;11.10;99.90
2625;DHT22;1322;53.256;10.386;2023-04-16T09:12:55;11.20;99.90
2625;DHT22;1322;53.256;10.386;2023-04-16T09:15:22;11.20;99.90
2625;DHT22;1322;53.256;10.386;2023-04-16T09:17:47;11.20;99.90
2625;DHT22;1322;53.256;10.386;2023-04-16T09:20:14;11.30;99.90
2625;DHT22;1322;53.256;10.386;2023-04-16T09:22:43;11.50;99.90
2625;DHT22;1322;53.256;10.386;2023-04-16T09:25:11;11.30;99.90
2625;DHT22;1322;53.256;10.386;2023-04-16T09:27:37;11.20;99.90
2625;DHT22;1322;53.256;10.386;2023-04-16T09:30:21;11.20;99.90
2625;DHT22;1322;53.256;10.386;2023-04-16T09:32:48;11.20;99.90
2625;DHT22;1322;53.256;10.386;2023-04-16T09:35:14;11.30;99.90
2625;DHT22;1322;53.256;10.386;2023-04-16T09:37:40;11.50;99.90
2625;DHT22;1322;53.256;10.386;2023-04-16T09:40:06;11.60;99.90
2625;DHT22;1322;53.256;10.386;2023-04-16T09:42:34;11.80;99.90
2625;DHT22;1322;53.256;10.386;2023-04-16T09:45:00;11.90;99.90
2625;DHT22;1322;53.256;10.386;2023-04-16T09:47:38;11.90;99.90
2625;DHT22;1322;53.256;10.386;2023-04-16T09:50:06;12.00;99.90
2625;DHT22;1322;53.256;10.386;2023-04-16T09:52:35;11.70;99.90
2625;DHT22;1322;53.256;10.386;2023-04-16T09:55:02;11.80;99.90
2625;DHT22;1322;53.256;10.386;2023-04-16T09:57:28;11.90;99.90
2625;DHT22;1322;53.256;10.386;2023-04-16T10:00:01;11.90;99.90
2625;DHT22;1322;53.256;10.386;2023-04-16T10:02:27;12.00;99.90
2625;DHT22;1322;53.256;10.386;2023-04-16T10:04:54;11.90;99.90
2625;DHT22;1322;53.256;10.386;2023-04-16T10:07:20;11.80;99.90
2625;DHT22;1322;53.256;10.386;2023-04-16T10:09:47;11.70;99.90
2625;DHT22;1322;53.256;10.386;2023-04-16T10:12:14;11.60;99.90
2625;DHT22;1322;53.256;10.386;2023-04-16T10:14:40;11.50;99.90
2625;DHT22;1322;53.256;10.386;2023-04-16T10:17:07;11.50;99.90
2625;DHT22;1322;53.256;10.386;2023-04-16T10:19:36;11.50;99.90
2625;DHT22;1322;53.256;10.386;2023-04-16T10:22:02;11.50;99.90
2625;DHT22;1322;53.256;10.386;2023-04-16T10:24:29;11.60;99.90
2625;DHT22;1322;53.256;10.386;2023-04-16T10:26:56;11.60;99.90
2625;DHT22;1322;53.256;10.386;2023-04-16T10:29:23;11.60;99.90
2625;DHT22;1322;53.256;10.386;2023-04-16T10:31:50;11.60;99.90
2625;DHT22;1322;53.256;10.386;2023-04-16T10:34:17;11.50;99.90
2625;DHT22;1322;53.256;10.386;2023-04-16T10:36:50;11.60;99.90
2625;DHT22;1322;53.256;10.386;2023-04-16T10:39:26;11.80;99.90
2625;DHT22;1322;53.256;10.386;2023-04-16T10:42:09;11.90;99.90
2625;DHT22;1322;53.256;10.386;2023-04-16T10:44:35;12.00;99.90
2625;DHT22;1322;53.256;10.386;2023-04-16T10:47:01;12.10;99.90
2625;DHT22;1322;53.256;10.386;2023-04-16T10:49:26;12.30;99.90
2625;DHT22;1322;53.256;10.386;2023-04-16T10:51:57;12.30;99.90
2625;DHT22;1322;53.256;10.386;2023-04-16T10:54:25;12.50;99.90
2625;DHT22;1322;53.256;10.386;2023-04-16T10:56:52;12.60;99.90
2625;DHT22;1322;53.256;10.386;2023-04-16T10:59:19;12.80;99.90
2625;DHT22;1322;53.256;10.386;2023-04-16T11:01:49;13.10;99.90
2625;DHT22;1322;53.256;10.386;2023-04-16T11:09:54;12.90;99.90
2625;DHT22;1322;53.256;10.386;2023-04-16T11:12:54;13.10;99.90
2625;DHT22;1322;53.256;10.386;2023-04-16T11:15:20;13.20;99.90
2625;DHT22;1322;53.256;10.386;2023-04-16T11:17:50;13.10;99.90
2625;DHT22;1322;53.256;10.386;2023-04-16T11:20:21;13.30;99.90
2625;DHT22;1322;53.256;10.386;2023-04-16T11:22:47;13.50;99.90
2625;DHT22;1322;53.256;10.386;2023-04-16T11:25:18;13.30;99.90
2625;DHT22;1322;53.256;10.386;2023-04-16T11:27:45;13.40;99.90
2625;DHT22;1322;53.256;10.386;2023-04-16T11:30:10;13.00;99.90
2625;DHT22;1322;53.256;10.386;2023-04-16T11:32:38;13.10;99.90
2625;DHT22;1322;53.256;10.386;2023-04-16T11:35:15;13.10;99.90
2625;DHT22;1322;53.256;10.386;2023-04-16T11:37:41;13.20;99.90
2625;DHT22;1322;53.256;10.386;2023-04-16T11:40:08;13.30;99.90
2625;DHT22;1322;53.256;10.386;2023-04-16T11:42:38;13.10;99.90
2625;DHT22;1322;53.256;10.386;2023-04-16T11:45:09;13.30;99.90
2625;DHT22;1322;53.256;10.386;2023-04-16T11:47:46;13.40;99.90
2625;DHT22;1322;53.256;10.386;2023-04-16T11:50:21;13.30;99.90
2625;DHT22;1322;53.256;10.386;2023-04-16T11:52:49;13.50;99.90
2625;DHT22;1322;53.256;10.386;2023-04-16T11:55:16;13.30;99.90
2625;DHT22;1322;53.256;10.386;2023-04-16T11:57:41;13.10;99.90
2625;DHT22;1322;53.256;10.386;2023-04-16T12:00:08;13.00;99.90
2625;DHT22;1322;53.256;10.386;2023-04-16T12:02:51;13.00;99.90
2625;DHT22;1322;53.256;10.386;2023-04-16T12:05:32;13.00;99.90
2625;DHT22;1322;53.256;10.386;2023-04-16T12:08:04;13.20;99.90
2625;DHT22;1322;53.256;10.386;2023-04-16T12:10:32;13.30;99.90
2625;DHT22;1322;53.256;10.386;2023-04-16T12:13:13;13.40;99.90
2625;DHT22;1322;53.256;10.386;2023-04-16T12:15:50;13.30;99.90
2625;DHT22;1322;53.256;10.386;2023-04-16T12:18:17;13.30;99.90
2625;DHT22;1322;53.256;10.386;2023-04-16T12:20:44;13.30;99.90
2625;DHT22;1322;53.256;10.386;2023-04-16T12:23:31;13.20;99.90
2625;DHT22;1322;53.256;10.386;2023-04-16T12:25:58;13.10;99.90
2625;DHT22;1322;53.256;10.386;2023-04-16T12:28:35;12.90;99.90
2625;DHT22;1322;53.256;10.386;2023-04-16T12:31:03;13.00;99.90
2625;DHT22;1322;53.256;10.386;2023-04-16T12:33:29;13.00;99.90
2625;DHT22;1322;53.256;10.386;2023-04-16T12:35:55;13.00;99.90
2625;DHT22;1322;53.256;10.386;2023-04-16T12:38:21;12.70;99.90
2625;DHT22;1322;53.256;10.386;2023-04-16T12:40:47;12.30;99.90
2625;DHT22;1322;53.256;10.386;2023-04-16T12:43:13;12.00;99.90
2625;DHT22;1322;53.256;10.386;2023-04-16T12:45:39;11.80;99.90
2625;DHT22;1322;53.256;10.386;2023-04-16T12:48:05;11.80;99.90
2625;DHT22;1322;53.256;10.386;2023-04-16T12:50:31;11.80;99.90
2625;DHT22;1322;53.256;10.386;2023-04-16T12:52:57;11.70;99.90
2625;DHT22;1322;53.256;10.386;2023-04-16T12:55:24;11.70;99.90
2625;DHT22;1322;53.256;10.386;2023-04-16T12:57:50;11.70;99.90
2625;DHT22;1322;53.256;10.386;2023-04-16T13:00:18;11.70;99.90
2625;DHT22;1322;53.256;10.386;2023-04-16T13:02:44;11.80;99.90
2625;DHT22;1322;53.256;10.386;2023-04-16T13:05:10;11.80;99.90
2625;DHT22;1322;53.256;10.386;2023-04-16T13:07:37;11.90;99.90
2625;DHT22;1322;53.256;10.386;2023-04-16T13:10:04;12.00;99.90
2625;DHT22;1322;53.256;10.386;2023-04-16T13:12:30;12.10;99.90
2625;DHT22;1322;53.256;10.386;2023-04-16T13:14:57;12.20;99.90
2625;DHT22;1322;53.256;10.386;2023-04-16T13:17:22;12.20;99.90
2625;DHT22;1322;53.256;10.386;2023-04-16T13:19:51;12.20;99.90
2625;DHT22;1322;53.256;10.386;2023-04-16T13:22:17;12.20;99.90
2625;DHT22;1322;53.256;10.386;2023-04-16T13:24:42;12.20;99.90
2625;DHT22;1322;53.256;10.386;2023-04-16T13:27:08;12.30;99.90
2625;DHT22;1322;53.256;10.386;2023-04-16T13:29:34;12.20;99.90
2625;DHT22;1322;53.256;10.386;2023-04-16T13:32:03;12.10;99.90
2625;DHT22;1322;53.256;10.386;2023-04-16T13:34:28;12.10;99.90
2625;DHT22;1322;53.256;10.386;2023-04-16T13:36:54;12.30;99.90
2625;DHT22;1322;53.256;10.386;2023-04-16T13:39:20;12.40;99.90
2625;DHT22;1322;53.256;10.386;2023-04-16T13:41:46;12.50;99.90
2625;DHT22;1322;53.256;10.386;2023-04-16T13:44:15;12.60;99.90
2625;DHT22;1322;53.256;10.386;2023-04-16T13:46:41;12.50;99.90
2625;DHT22;1322;53.256;10.386;2023-04-16T13:49:12;12.50;99.90
2625;DHT22;1322;53.256;10.386;2023-04-16T13:51:37;12.60;99.90
2625;DHT22;1322;53.256;10.386;2023-04-16T13:54:03;12.60;99.90
2625;DHT22;1322;53.256;10.386;2023-04-16T13:56:29;12.70;99.90
2625;DHT22;1322;53.256;10.386;2023-04-16T13:58:54;12.70;99.90
2625;DHT22;1322;53.256;10.386;2023-04-16T14:01:20;12.70;99.90
2625;DHT22;1322;53.256;10.386;2023-04-16T14:03:46;12.70;99.90
2625;DHT22;1322;53.256;10.386;2023-04-16T14:06:11;12.80;99.90
2625;DHT22;1322;53.256;10.386;2023-04-16T14:08:38;12.80;99.90
2625;DHT22;1322;53.256;10.386;2023-04-16T14:11:03;12.80;99.90
2625;DHT22;1322;53.256;10.386;2023-04-16T14:13:30;12.90;99.90
2625;DHT22;1322;53.256;10.386;2023-04-16T14:15:56;13.00;99.90
2625;DHT22;1322;53.256;10.386;2023-04-16T14:18:22;12.80;99.90
2625;DHT22;1322;53.256;10.386;2023-04-16T14:20:47;12.90;99.90
2625;DHT22;1322;53.256;10.386;2023-04-16T14:23:13;12.80;99.90
2625;DHT22;1322;53.256;10.386;2023-04-16T14:25:39;12.90;99.90
2625;DHT22;1322;53.256;10.386;2023-04-16T14:28:05;12.80;99.90
2625;DHT22;1322;53.256;10.386;2023-04-16T14:30:30;12.90;99.90
2625;DHT22;1322;53.256;10.386;2023-04-16T14:32:56;13.10;99.90
2625;DHT22;1322;53.256;10.386;2023-04-16T14:35:22;13.10;99.90
2625;DHT22;1322;53.256;10.386;2023-04-16T14:37:48;13.10;99.90
2625;DHT22;1322;53.256;10.386;2023-04-16T14:40:14;13.20;99.90
2625;DHT22;1322;53.256;10.386;2023-04-16T14:42:40;13.10;99.90
2625;DHT22;1322;53.256;10.386;2023-04-16T14:45:06;13.00;99.90
2625;DHT22;1322;53.256;10.386;2023-04-16T14:47:33;13.00;99.90
2625;DHT22;1322;53.256;10.386;2023-04-16T14:49:59;12.90;99.90
2625;DHT22;1322;53.256;10.386;2023-04-16T14:52:25;13.00;99.90
2625;DHT22;1322;53.256;10.386;2023-04-16T14:54:52;12.90;99.90
2625;DHT22;1322;53.256;10.386;2023-04-16T14:57:19;12.90;99.90
2625;DHT22;1322;53.256;10.386;2023-04-16T14:59:45;12.80;99.90
2625;DHT22;1322;53.256;10.386;2023-04-16T15:02:11;12.70;99.90
2625;DHT22;1322;53.256;10.386;2023-04-16T15:04:37;12.60;99.90
2625;DHT22;1322;53.256;10.386;2023-04-16T15:07:03;12.60;99.90
2625;DHT22;1322;53.256;10.386;2023-04-16T15:09:28;12.60;99.90
2625;DHT22;1322;53.256;10.386;2023-04-16T15:11:54;12.50;99.90
2625;DHT22;1322;53.256;10.386;2023-04-16T15:14:21;12.60;99.90
2625;DHT22;1322;53.256;10.386;2023-04-16T15:16:46;12.70;99.90
2625;DHT22;1322;53.256;10.386;2023-04-16T15:19:13;12.80;99.90
2625;DHT22;1322;53.256;10.386;2023-04-16T15:21:42;12.80;99.90
2625;DHT22;1322;53.256;10.386;2023-04-16T15:24:07;13.00;99.90
2625;DHT22;1322;53.256;10.386;2023-04-16T15:26:33;12.90;99.90
2625;DHT22;1322;53.256;10.386;2023-04-16T15:28:59;12.90;99.90
2625;DHT22;1322;53.256;10.386;2023-04-16T15:31:24;12.90;99.90
2625;DHT22;1322;53.256;10.386;2023-04-16T15:33:51;12.90;99.90
2625;DHT22;1322;53.256;10.386;2023-04-16T15:36:17;12.80;99.90
2625;DHT22;1322;53.256;10.386;2023-04-16T15:38:43;12.70;99.90
2625;DHT22;1322;53.256;10.386;2023-04-16T15:41:09;12.60;99.90
2625;DHT22;1322;53.256;10.386;2023-04-16T15:43:37;12.60;99.90
2625;DHT22;1322;53.256;10.386;2023-04-16T15:46:03;12.60;99.90
2625;DHT22;1322;53.256;10.386;2023-04-16T15:48:29;12.50;99.90
2625;DHT22;1322;53.256;10.386;2023-04-16T15:50:55;12.60;99.90
2625;DHT22;1322;53.256;10.386;2023-04-16T15:53:20;12.40;99.90
2625;DHT22;1322;53.256;10.386;2023-04-16T15:55:46;12.40;99.90
2625;DHT22;1322;53.256;10.386;2023-04-16T15:58:14;12.40;99.90